createdAt,value
2022-09-14T00:02:11.979Z,5.95
2022-09-14T00:04:42.050Z,7.53
2022-09-14T00:07:11.740Z,9.93
2022-09-14T00:09:41.705Z,6.80
2022-09-14T00:12:11.360Z,8.82
2022-09-14T00:14:43.677Z,8.73
2022-09-14T00:17:13.536Z,11.70
2022-09-14T00:19:43.122Z,6.60
2022-09-14T00:22:12.812Z,6.82
2022-09-14T00:24:42.360Z,4.68
2022-09-14T00:27:11.920Z,7.10
2022-09-14T00:29:44.052Z,9.40
2022-09-14T00:32:13.625Z,7.00
2022-09-14T00:34:43.484Z,10.98
2022-09-14T00:37:14.356Z,8.73
2022-09-14T00:39:44.192Z,6.30
2022-09-14T00:42:19.518Z,5.50
2022-09-14T00:45:08.269Z,7.72
2022-09-14T00:47:38.257Z,7.63
2022-09-14T00:50:08.738Z,4.90
2022-09-14T00:52:40.566Z,7.05
2022-09-14T00:55:12.719Z,8.82
2022-09-14T00:57:45.453Z,8.10
2022-09-14T01:00:21.271Z,6.33
2022-09-14T01:02:50.862Z,8.10
2022-09-14T01:05:21.723Z,6.88
2022-09-14T01:08:21.458Z,8.70
2022-09-14T01:11:13.911Z,8.57
2022-09-14T01:13:50.497Z,7.82
2022-09-14T01:16:28.236Z,6.67
2022-09-14T01:19:00.154Z,6.93
2022-09-14T01:21:33.442Z,5.55
2022-09-14T01:24:10.129Z,7.38
2022-09-14T01:26:57.881Z,8.00
2022-09-14T01:29:32.918Z,9.70
2022-09-14T01:32:05.525Z,9.23
2022-09-14T01:34:37.322Z,6.57
2022-09-14T01:37:13.185Z,7.30
2022-09-14T01:39:47.005Z,9.35
2022-09-14T01:42:17.819Z,10.90
2022-09-14T01:44:58.349Z,8.17
2022-09-14T01:47:33.055Z,11.90
2022-09-14T01:50:06.169Z,6.10
2022-09-14T01:52:41.551Z,9.30
2022-09-14T01:55:14.388Z,7.88
2022-09-14T01:57:46.884Z,7.38
2022-09-14T02:00:23.055Z,6.30
2022-09-14T02:02:56.694Z,12.25
2022-09-14T02:05:31.661Z,7.57
2022-09-14T02:08:01.361Z,10.15
2022-09-14T02:10:31.482Z,12.52
2022-09-14T02:13:01.301Z,9.90
2022-09-14T02:15:33.643Z,8.87
2022-09-14T02:18:03.248Z,13.48
2022-09-14T02:20:40.792Z,7.30
2022-09-14T02:23:10.509Z,14.52
2022-09-14T02:25:41.117Z,11.27
2022-09-14T02:28:10.895Z,7.13
2022-09-14T02:30:48.762Z,10.88
2022-09-14T02:33:22.895Z,9.60
2022-09-14T02:35:55.748Z,9.35
2022-09-14T02:38:33.760Z,9.00
2022-09-14T02:41:07.644Z,7.68
2022-09-14T02:43:45.668Z,12.48
2022-09-14T02:46:23.302Z,12.73
2022-09-14T02:48:57.164Z,9.30
2022-09-14T02:51:31.164Z,11.98
2022-09-14T02:54:03.547Z,11.05
2022-09-14T02:56:33.453Z,10.55
2022-09-14T02:59:03.033Z,12.15
2022-09-14T03:01:35.222Z,7.93
2022-09-14T03:04:05.378Z,9.45
2022-09-14T03:06:34.946Z,10.23
2022-09-14T03:09:04.519Z,9.77
2022-09-14T03:11:34.268Z,11.57
2022-09-14T03:14:03.864Z,10.60
2022-09-14T03:16:36.058Z,11.43
2022-09-14T03:19:05.928Z,10.93
2022-09-14T03:21:35.838Z,8.45
2022-09-14T03:24:06.060Z,9.43
2022-09-14T03:26:36.910Z,11.30
2022-09-14T03:29:07.495Z,7.03
2022-09-14T03:31:39.697Z,12.70
2022-09-14T03:34:09.277Z,10.32
2022-09-14T03:36:38.894Z,11.70
2022-09-14T03:39:09.219Z,10.27
2022-09-14T03:41:39.059Z,11.18
2022-09-14T03:44:08.651Z,9.27
2022-09-14T03:46:41.156Z,9.93
2022-09-14T03:49:10.758Z,11.55
2022-09-14T03:51:40.397Z,8.77
2022-09-14T03:54:09.934Z,12.27
2022-09-14T03:56:39.469Z,12.57
2022-09-14T03:59:11.209Z,7.90
2022-09-14T04:01:43.617Z,13.30
2022-09-14T04:04:13.286Z,9.20
2022-09-14T04:06:42.815Z,10.15
2022-09-14T04:09:12.493Z,14.43
2022-09-14T04:11:42.036Z,8.83
2022-09-14T04:14:11.731Z,8.98
2022-09-14T04:16:44.787Z,7.35
2022-09-14T04:19:15.102Z,13.55
2022-09-14T04:21:45.828Z,11.07
2022-09-14T04:24:16.559Z,9.05
2022-09-14T04:26:47.241Z,10.07
2022-09-14T04:29:16.959Z,10.95
2022-09-14T04:31:49.175Z,14.05
2022-09-14T04:34:18.725Z,15.80
2022-09-14T04:36:48.260Z,9.80
2022-09-14T04:39:17.998Z,7.55
2022-09-14T04:41:47.574Z,9.07
2022-09-14T04:44:17.377Z,9.80
2022-09-14T04:46:49.620Z,8.48
2022-09-14T04:49:21.588Z,8.75
2022-09-14T04:51:51.373Z,13.93
2022-09-14T04:54:21.491Z,8.05
2022-09-14T04:56:51.104Z,9.88
2022-09-14T04:59:20.759Z,9.83
2022-09-14T05:01:52.975Z,9.75
2022-09-14T05:04:22.663Z,15.50
2022-09-14T05:06:52.873Z,8.13
2022-09-14T05:09:22.507Z,11.15
2022-09-14T05:11:52.879Z,11.40
2022-09-14T05:14:22.421Z,13.20
2022-09-14T05:16:56.479Z,8.80
2022-09-14T05:19:26.322Z,14.20
2022-09-14T05:21:56.136Z,13.13
2022-09-14T05:24:25.740Z,12.57
2022-09-14T05:26:59.934Z,22.30
2022-09-14T05:29:31.970Z,12.75
2022-09-14T05:32:04.605Z,8.33
2022-09-14T05:34:34.230Z,9.77
2022-09-14T05:37:03.741Z,13.35
2022-09-14T05:39:33.351Z,9.70
2022-09-14T05:42:02.905Z,12.98
2022-09-14T05:44:32.528Z,8.80
2022-09-14T05:47:04.717Z,12.25
2022-09-14T05:49:34.296Z,13.68
2022-09-14T05:52:04.042Z,14.07
2022-09-14T05:54:33.589Z,8.90
2022-09-14T05:57:03.133Z,11.68
2022-09-14T05:59:32.700Z,10.45
2022-09-14T06:02:04.897Z,15.75
2022-09-14T06:04:34.893Z,13.03
2022-09-14T06:07:17.917Z,12.57
2022-09-14T06:09:48.575Z,11.38
2022-09-14T06:12:18.719Z,13.70
2022-09-14T06:14:48.250Z,10.52
2022-09-14T06:17:20.774Z,10.52
2022-09-14T06:19:50.451Z,9.47
2022-09-14T06:22:20.368Z,9.60
2022-09-14T06:24:50.015Z,10.60
2022-09-14T06:27:19.552Z,12.25
2022-09-14T06:29:52.061Z,13.40
2022-09-14T06:32:25.209Z,13.82
2022-09-14T06:34:54.732Z,17.30
2022-09-14T06:37:24.313Z,14.30
2022-09-14T06:39:53.914Z,11.57
2022-09-14T06:42:23.572Z,15.10
2022-09-14T06:44:54.973Z,15.60
2022-09-14T06:47:27.250Z,12.60
2022-09-14T06:49:56.834Z,12.10
2022-09-14T06:52:29.432Z,17.00
2022-09-14T06:55:01.521Z,13.35
2022-09-14T06:57:31.244Z,14.05
2022-09-14T07:00:00.860Z,13.38
2022-09-14T07:02:33.046Z,14.85
2022-09-14T07:05:02.765Z,11.00
2022-09-14T07:07:32.326Z,13.98
2022-09-14T07:10:01.843Z,14.88
2022-09-14T07:12:31.359Z,14.63
2022-09-14T07:15:00.891Z,16.60
2022-09-14T07:17:33.257Z,14.20
2022-09-14T07:20:02.785Z,16.05
2022-09-14T07:22:35.877Z,12.18
2022-09-14T07:25:05.464Z,17.33
2022-09-14T07:27:37.655Z,14.67
2022-09-14T07:30:08.652Z,14.75
2022-09-14T07:32:40.826Z,12.93
2022-09-14T07:35:11.467Z,18.65
2022-09-14T07:37:41.078Z,12.55
2022-09-14T07:40:12.384Z,19.50
2022-09-14T07:42:42.015Z,16.63
2022-09-14T07:45:12.569Z,18.98
2022-09-14T07:47:44.774Z,15.85
2022-09-14T07:50:14.467Z,16.58
2022-09-14T07:52:44.068Z,21.98
2022-09-14T07:55:15.079Z,15.88
2022-09-14T07:57:56.090Z,16.63
2022-09-14T08:00:27.022Z,13.43
2022-09-14T08:02:59.375Z,19.05
2022-09-14T08:05:29.022Z,18.02
2022-09-14T08:07:59.054Z,17.77
2022-09-14T08:10:28.854Z,22.02
2022-09-14T08:12:58.974Z,19.20
2022-09-14T08:15:28.844Z,19.30
2022-09-14T08:18:01.011Z,16.13
2022-09-14T08:20:30.540Z,16.95
2022-09-14T08:23:01.892Z,22.70
2022-09-14T08:25:31.408Z,19.95
2022-09-14T08:28:01.154Z,16.05
2022-09-14T08:30:30.700Z,22.13
2022-09-14T08:33:02.778Z,21.63
2022-09-14T08:35:56.381Z,21.20
2022-09-14T08:38:24.665Z,17.88
2022-09-14T08:40:54.355Z,20.07
2022-09-14T08:43:25.719Z,18.60
2022-09-14T08:46:00.596Z,23.70
2022-09-14T08:48:37.462Z,17.80
2022-09-14T08:51:08.572Z,21.58
2022-09-14T08:53:42.446Z,15.73
2022-09-14T08:56:16.086Z,16.17
2022-09-14T08:58:55.596Z,17.70
2022-09-14T09:01:31.302Z,21.35
2022-09-14T09:04:17.404Z,20.30
2022-09-14T09:06:52.194Z,22.23
2022-09-14T09:09:26.953Z,19.40
2022-09-14T09:11:57.153Z,21.52
2022-09-14T09:14:29.771Z,21.75
2022-09-14T09:17:01.549Z,19.27
2022-09-14T09:19:37.744Z,23.48
2022-09-14T09:22:09.600Z,16.40
2022-09-14T09:24:42.424Z,17.70
2022-09-14T09:27:15.881Z,15.60
2022-09-14T09:29:45.953Z,17.42
2022-09-14T09:32:20.388Z,18.83
2022-09-14T09:35:01.726Z,15.00
2022-09-14T09:37:55.601Z,15.13
2022-09-14T09:40:30.349Z,18.63
2022-09-14T09:43:10.817Z,15.63
2022-09-14T09:45:51.768Z,14.98
2022-09-14T09:48:26.309Z,15.25
2022-09-14T09:51:06.372Z,15.05
2022-09-14T09:53:37.468Z,11.40
2022-09-14T09:56:09.456Z,11.75
2022-09-14T09:58:41.740Z,9.68
2022-09-14T10:01:23.420Z,9.70
2022-09-14T10:04:21.352Z,10.18
2022-09-14T10:06:55.905Z,10.85
2022-09-14T10:09:27.482Z,11.48
2022-09-14T10:12:01.506Z,11.82
2022-09-14T10:14:33.736Z,10.13
2022-09-14T10:17:11.250Z,10.50
2022-09-14T10:19:41.178Z,11.30
2022-09-14T10:22:26.511Z,11.60
2022-09-14T10:24:59.575Z,9.00
2022-09-14T10:27:39.815Z,7.73
2022-09-14T10:30:15.674Z,6.83
2022-09-14T10:32:50.070Z,7.38
2022-09-14T10:35:19.904Z,9.82
2022-09-14T10:38:18.187Z,7.80
2022-09-14T10:40:51.734Z,8.93
2022-09-14T10:43:27.480Z,8.65
2022-09-14T10:45:59.964Z,9.07
2022-09-14T10:49:01.276Z,11.43
2022-09-14T10:51:40.471Z,10.07
2022-09-14T10:54:21.632Z,6.50
2022-09-14T10:57:03.581Z,8.80
2022-09-14T10:59:36.955Z,9.43
2022-09-14T11:02:25.535Z,8.13
2022-09-14T11:05:04.233Z,14.90
2022-09-14T11:07:38.563Z,9.45
2022-09-14T11:10:19.620Z,7.57
2022-09-14T11:12:58.373Z,7.20
2022-09-14T11:15:31.682Z,7.75
2022-09-14T11:18:10.936Z,6.22
2022-09-14T11:20:46.486Z,7.95
2022-09-14T11:23:26.546Z,6.90
2022-09-14T11:26:00.875Z,8.65
2022-09-14T11:28:33.657Z,7.82
2022-09-14T11:31:06.553Z,8.65
2022-09-14T11:33:39.706Z,9.00
2022-09-14T11:36:12.817Z,10.93
2022-09-14T11:38:47.634Z,10.32
2022-09-14T11:41:25.881Z,9.88
2022-09-14T11:43:58.831Z,10.95
2022-09-14T11:46:34.419Z,8.18
2022-09-14T11:49:12.709Z,8.90
2022-09-14T11:51:45.745Z,10.20
2022-09-14T11:54:21.367Z,11.17
2022-09-14T11:56:59.433Z,8.60
2022-09-14T11:59:39.352Z,12.93
2022-09-14T12:02:56.502Z,8.10
2022-09-14T12:05:32.511Z,10.07
2022-09-14T12:08:21.197Z,8.60
2022-09-14T12:11:04.800Z,8.88
2022-09-14T12:13:37.535Z,9.40
2022-09-14T12:16:08.618Z,12.40
2022-09-14T12:18:39.754Z,9.93
2022-09-14T12:21:15.586Z,9.50
2022-09-14T12:23:48.176Z,9.05
2022-09-14T12:26:38.923Z,8.50
2022-09-14T12:29:34.134Z,7.93
2022-09-14T12:32:27.734Z,10.40
2022-09-14T12:35:27.451Z,7.22
2022-09-14T12:37:57.351Z,8.77
2022-09-14T12:40:36.597Z,10.10
2022-09-14T12:43:38.968Z,8.85
2022-09-14T12:46:13.444Z,7.22
2022-09-14T12:48:58.950Z,7.90
2022-09-14T12:51:37.507Z,10.90
2022-09-14T12:54:18.796Z,10.90
2022-09-14T12:56:56.235Z,11.02
2022-09-14T12:59:29.633Z,9.13
2022-09-14T13:02:06.049Z,9.40
2022-09-14T13:04:37.200Z,7.88
2022-09-14T13:07:10.309Z,8.30
2022-09-14T13:09:39.868Z,7.35
2022-09-14T13:12:12.236Z,10.25
2022-09-14T13:14:48.931Z,10.00
2022-09-14T13:17:22.948Z,9.80
2022-09-14T13:19:57.667Z,6.97
2022-09-14T13:22:29.388Z,7.40
2022-09-14T13:24:58.982Z,8.05
2022-09-14T13:27:31.152Z,6.70
2022-09-14T13:30:02.764Z,8.77
2022-09-14T13:32:37.420Z,7.63
2022-09-14T13:35:08.308Z,8.45
2022-09-14T13:37:44.101Z,10.10
2022-09-14T13:40:17.045Z,12.18
2022-09-14T13:42:46.780Z,9.18
2022-09-14T13:45:16.580Z,8.52
2022-09-14T13:47:48.965Z,8.98
2022-09-14T13:50:19.275Z,7.30
2022-09-14T13:53:04.674Z,8.82
2022-09-14T13:55:47.478Z,5.97
2022-09-14T13:58:23.038Z,12.37
2022-09-14T14:00:58.516Z,9.90
2022-09-14T14:03:40.409Z,10.77
2022-09-14T14:06:23.828Z,11.90
2022-09-14T14:09:11.674Z,11.25
2022-09-14T14:11:43.276Z,8.05
2022-09-14T14:14:21.516Z,10.90
2022-09-14T14:17:21.165Z,9.30
2022-09-14T14:19:55.021Z,9.68
2022-09-14T14:22:31.246Z,6.15
2022-09-14T14:25:16.589Z,7.25
2022-09-14T14:27:48.309Z,8.15
2022-09-14T14:30:19.902Z,10.18
2022-09-14T14:32:52.957Z,6.78
2022-09-14T14:35:27.057Z,5.97
2022-09-14T14:37:57.314Z,4.80
2022-09-14T14:40:29.014Z,5.40
2022-09-14T14:43:01.491Z,6.93
2022-09-14T14:45:35.412Z,5.20
2022-09-14T14:48:06.475Z,6.10
2022-09-14T14:50:38.683Z,7.20
2022-09-14T14:53:09.066Z,7.43
2022-09-14T14:55:38.669Z,4.83
2022-09-14T14:58:10.107Z,5.30
2022-09-14T15:00:40.407Z,5.80
2022-09-14T15:03:10.116Z,5.00
2022-09-14T15:05:45.826Z,10.13
2022-09-14T15:08:17.262Z,7.30
2022-09-14T15:10:46.879Z,8.82
2022-09-14T15:13:16.552Z,6.90
2022-09-14T15:15:46.306Z,8.40
2022-09-14T15:18:15.872Z,9.77
2022-09-14T15:20:48.086Z,12.27
2022-09-14T15:23:17.674Z,8.80
2022-09-14T15:25:47.262Z,7.88
2022-09-14T15:28:16.883Z,10.77
2022-09-14T15:30:46.520Z,9.63
2022-09-14T15:33:16.123Z,9.57
2022-09-14T15:35:48.523Z,8.25
2022-09-14T15:38:18.150Z,12.38
2022-09-14T15:40:48.120Z,9.30
2022-09-14T15:43:17.776Z,7.00
2022-09-14T15:45:47.394Z,12.20
2022-09-14T15:48:17.906Z,8.80
2022-09-14T15:50:51.020Z,9.70
2022-09-14T15:53:21.070Z,10.80
2022-09-14T15:55:50.644Z,9.93
2022-09-14T15:58:20.256Z,10.07
2022-09-14T16:00:50.311Z,13.32
2022-09-14T16:03:21.564Z,6.75
2022-09-14T16:05:53.710Z,10.18
2022-09-14T16:08:23.287Z,8.77
2022-09-14T16:11:00.165Z,8.48
2022-09-14T16:13:29.998Z,9.70
2022-09-14T16:16:06.238Z,12.50
2022-09-14T16:18:36.251Z,9.82
2022-09-14T16:21:17.459Z,16.83
2022-09-14T16:23:48.929Z,8.50
2022-09-14T16:26:20.350Z,9.27
2022-09-14T16:28:51.842Z,10.32
2022-09-14T16:31:23.192Z,8.02
2022-09-14T16:33:55.284Z,10.20
2022-09-14T16:36:29.060Z,12.32
2022-09-14T16:39:01.080Z,14.80
2022-09-14T16:41:32.248Z,10.88
2022-09-14T16:44:03.797Z,11.25
2022-09-14T16:46:34.832Z,18.30
2022-09-14T16:49:05.657Z,12.30
2022-09-14T16:51:38.282Z,12.57
2022-09-14T16:54:08.071Z,11.85
2022-09-14T16:56:39.278Z,15.45
2022-09-14T16:59:09.856Z,13.67
2022-09-14T17:01:41.129Z,19.25
2022-09-14T17:04:15.969Z,15.23
2022-09-14T17:06:52.951Z,22.08
2022-09-14T17:09:24.125Z,20.23
2022-09-14T17:11:54.165Z,25.45
2022-09-14T17:14:26.292Z,21.08
2022-09-14T17:16:56.332Z,25.90
2022-09-14T17:19:26.788Z,25.10
2022-09-14T17:22:03.844Z,31.02
2022-09-14T17:24:34.193Z,29.25
2022-09-14T17:27:04.003Z,28.90
2022-09-14T17:29:38.666Z,31.23
2022-09-14T17:32:14.071Z,30.55
2022-09-14T17:34:44.391Z,29.98
2022-09-14T17:37:16.569Z,32.10
2022-09-14T17:39:46.340Z,31.13
2022-09-14T17:42:15.914Z,30.05
2022-09-14T17:44:45.511Z,34.30
2022-09-14T17:47:15.139Z,29.83
2022-09-14T17:49:44.700Z,31.58
2022-09-14T17:52:16.875Z,29.98
2022-09-14T17:54:46.512Z,36.60
2022-09-14T17:57:16.132Z,35.97
2022-09-14T17:59:45.765Z,36.50
2022-09-14T18:02:15.322Z,29.55
2022-09-14T18:04:48.381Z,38.60
2022-09-14T18:07:20.816Z,37.47
2022-09-14T18:09:50.608Z,35.03
2022-09-14T18:12:20.435Z,37.83
2022-09-14T18:14:50.023Z,36.58
2022-09-14T18:17:20.756Z,38.20
2022-09-14T18:19:54.295Z,34.42
2022-09-14T18:22:26.459Z,35.63
2022-09-14T18:24:56.326Z,39.58
2022-09-14T18:27:25.988Z,35.97
2022-09-14T18:29:56.012Z,31.10
2022-09-14T18:32:25.811Z,30.85
2022-09-14T18:34:56.024Z,30.70
2022-09-14T18:37:28.190Z,36.45
2022-09-14T18:39:57.734Z,32.10
2022-09-14T18:42:27.308Z,44.10
2022-09-14T18:44:56.876Z,27.88
2022-09-14T18:47:26.483Z,29.60
2022-09-14T18:49:56.018Z,29.93
2022-09-14T18:52:28.185Z,30.77
2022-09-14T18:54:57.829Z,25.65
2022-09-14T18:57:27.969Z,32.35
2022-09-14T18:59:57.612Z,36.17
2022-09-14T19:02:27.335Z,28.40
2022-09-14T19:04:57.860Z,31.60
2022-09-14T19:07:30.050Z,32.92
2022-09-14T19:09:59.889Z,32.25
2022-09-14T19:12:29.453Z,30.70
2022-09-14T19:14:59.026Z,31.83
2022-09-14T19:17:28.659Z,39.03
2022-09-14T19:19:58.246Z,31.83
2022-09-14T19:22:31.033Z,27.27
2022-09-14T19:25:00.663Z,32.95
2022-09-14T19:27:30.759Z,30.90
2022-09-14T19:30:01.419Z,30.70
2022-09-14T19:32:30.948Z,31.98
2022-09-14T19:35:00.490Z,29.30
2022-09-14T19:37:35.084Z,29.92
2022-09-14T19:40:05.493Z,31.50
2022-09-14T19:42:36.184Z,37.78
2022-09-14T19:45:06.400Z,33.53
2022-09-14T19:47:35.986Z,30.17
2022-09-14T19:50:05.802Z,35.88
2022-09-14T19:52:38.096Z,36.28
2022-09-14T19:55:08.608Z,40.17
2022-09-14T19:57:38.360Z,39.25
2022-09-14T20:00:13.225Z,39.30
2022-09-14T20:02:44.850Z,38.22
2022-09-14T20:05:16.173Z,41.47
2022-09-14T20:07:50.721Z,33.88
2022-09-14T20:10:23.665Z,41.85
2022-09-14T20:12:53.399Z,39.07
2022-09-14T20:15:22.936Z,37.63
2022-09-14T20:17:56.861Z,39.33
2022-09-14T20:20:26.529Z,39.85
2022-09-14T20:22:58.783Z,41.30
2022-09-14T20:25:28.659Z,41.58
2022-09-14T20:27:58.638Z,38.97
2022-09-14T20:30:28.953Z,43.20
2022-09-14T20:32:58.563Z,36.53
2022-09-14T20:35:28.165Z,42.05
2022-09-14T20:38:00.374Z,41.08
2022-09-14T20:40:29.974Z,37.88
2022-09-14T20:42:59.704Z,39.47
2022-09-14T20:45:29.474Z,38.90
2022-09-14T20:47:59.419Z,39.20
2022-09-14T20:50:28.990Z,41.85
2022-09-14T20:53:01.239Z,41.95
2022-09-14T20:55:30.865Z,39.67
2022-09-14T20:58:00.425Z,46.13
2022-09-14T21:00:29.993Z,37.13
2022-09-14T21:02:59.622Z,42.53
2022-09-14T21:05:29.423Z,42.53
2022-09-14T21:08:01.696Z,43.78
2022-09-14T21:10:31.261Z,39.58
2022-09-14T21:13:00.889Z,43.35
2022-09-14T21:15:30.647Z,45.10
2022-09-14T21:18:00.799Z,48.55
2022-09-14T21:20:31.400Z,51.75
2022-09-14T21:23:03.586Z,43.30
2022-09-14T21:25:33.146Z,46.97
2022-09-14T21:28:02.807Z,81.63
2022-09-14T21:30:32.984Z,53.17
2022-09-14T21:33:02.540Z,57.92
2022-09-14T21:35:33.745Z,122.97
2022-09-14T21:38:06.745Z,201.25
2022-09-14T21:40:37.053Z,197.50
2022-09-14T21:43:06.737Z,224.07
2022-09-14T21:45:36.301Z,117.55
2022-09-14T21:48:05.994Z,74.55
2022-09-14T21:50:35.646Z,66.72
2022-09-14T21:53:07.970Z,75.63
2022-09-14T21:55:41.135Z,57.55
2022-09-14T21:58:10.913Z,243.82
2022-09-14T22:00:40.599Z,219.95
2022-09-14T22:03:10.147Z,59.60
2022-09-14T22:05:39.740Z,71.57
2022-09-14T22:08:12.636Z,84.95
2022-09-14T22:10:42.247Z,55.15
2022-09-14T22:13:11.945Z,53.50
2022-09-14T22:15:42.408Z,46.38
2022-09-14T22:18:12.069Z,47.35
2022-09-14T22:20:41.880Z,205.88
2022-09-14T22:23:14.053Z,124.90
2022-09-14T22:25:44.352Z,95.47
2022-09-14T22:28:14.009Z,78.88
2022-09-14T22:30:47.346Z,106.47
2022-09-14T22:33:16.945Z,112.40
2022-09-14T22:35:53.968Z,69.45
2022-09-14T22:38:27.675Z,48.33
2022-09-14T22:40:58.151Z,81.72
2022-09-14T22:43:28.980Z,79.18
2022-09-14T22:45:58.691Z,44.70
2022-09-14T22:48:28.522Z,40.35
2022-09-14T22:50:59.968Z,38.35
2022-09-14T22:53:33.014Z,34.30
2022-09-14T22:56:10.243Z,37.90
2022-09-14T22:58:41.195Z,34.00
2022-09-14T23:01:12.828Z,40.78
2022-09-14T23:03:42.433Z,45.08
2022-09-14T23:06:12.245Z,37.25
2022-09-14T23:08:44.380Z,41.00
2022-09-14T23:11:15.294Z,40.65
2022-09-14T23:13:45.491Z,44.15
2022-09-14T23:16:17.140Z,41.22
2022-09-14T23:18:47.477Z,39.85
2022-09-14T23:21:17.066Z,46.28
2022-09-14T23:23:53.485Z,40.47
2022-09-14T23:26:23.695Z,38.80
2022-09-14T23:28:54.890Z,43.03
2022-09-14T23:31:25.382Z,42.97
2022-09-14T23:33:56.264Z,48.33
2022-09-14T23:36:26.693Z,40.92
2022-09-14T23:38:59.195Z,40.63
2022-09-14T23:41:29.664Z,45.88
2022-09-14T23:43:59.217Z,39.45
2022-09-14T23:46:28.801Z,43.30
2022-09-14T23:48:58.529Z,43.13
2022-09-14T23:51:28.213Z,37.50
2022-09-14T23:54:00.414Z,42.63
2022-09-14T23:56:30.000Z,40.47
2022-09-14T23:58:59.557Z,39.90
